Time;durP1;ratioP1;P1;durP2;ratioP2;P2;SDS_P1;SDS_P2;PMS_P1;PMS_P2;Temp;Humidity;BMP_temperature;BMP_pressure;BME280_temperature;BME280_humidity;BME280_pressure;Samples;Min_cycle;Max_cycle;Signal;HPM_P1;HPM_P2
2023/03/01 00:01:10;;;;;;;28.52;12.50;;;;;;;1.68;nan;100532.44;4997817;28;20078;-68
2023/03/01 00:03:36;;;;;;;26.73;11.02;;;;;;;1.68;nan;100535.03;5001768;28;20064;-69
2023/03/01 00:06:03;;;;;;;28.70;12.50;;;;;;;1.71;nan;100540.34;5007432;28;20032;-68
2023/03/01 00:08:29;;;;;;;23.77;10.95;;;;;;;1.76;nan;100539.59;5000742;28;20156;-69
2023/03/01 00:11:06;;;;;;;24.27;10.68;;;;;;;1.77;nan;100542.28;4998312;28;20481;-68
2023/03/01 00:13:33;;;;;;;22.83;10.53;;;;;;;1.80;nan;100538.88;4998189;28;20049;-68
2023/03/01 00:15:58;;;;;;;23.98;10.90;;;;;;;1.86;nan;100549.53;4998121;28;20034;-68
2023/03/01 00:18:24;;;;;;;27.83;10.80;;;;;;;1.92;nan;100543.63;4997942;28;20030;-68
2023/03/01 00:20:53;;;;;;;27.75;10.43;;;;;;;1.99;nan;100536.13;4998038;28;20033;-68
2023/03/01 00:23:19;;;;;;;24.10;10.48;;;;;;;2.04;nan;100535.41;4997721;28;20109;-69
2023/03/01 00:25:45;;;;;;;31.85;12.75;;;;;;;2.06;nan;100538.97;4997980;28;20037;-68
2023/03/01 00:28:10;;;;;;;30.57;12.57;;;;;;;2.06;nan;100533.75;5005654;28;20131;-69
2023/03/01 00:30:35;;;;;;;40.50;16.37;;;;;;;2.06;nan;100533.75;4982329;28;20073;-68
2023/03/01 00:33:01;;;;;;;37.33;14.83;;;;;;;2.07;nan;100525.13;4978280;28;20395;-68
2023/03/01 00:35:26;;;;;;;33.47;14.10;;;;;;;2.05;nan;100525.06;4978298;28;20562;-68
2023/03/01 00:37:57;;;;;;;31.35;12.68;;;;;;;2.01;nan;100524.06;4978070;28;20041;-68
2023/03/01 00:40:23;;;;;;;30.60;12.93;;;;;;;2.01;nan;100525.81;4981722;28;20090;-68
2023/03/01 00:42:49;;;;;;;29.80;13.45;;;;;;;1.98;nan;100521.38;4985859;28;20022;-69
2023/03/01 00:45:14;;;;;;;27.50;12.35;;;;;;;1.93;nan;100517.72;4987465;28;20041;-68
2023/03/01 00:47:40;;;;;;;30.60;11.53;;;;;;;1.91;nan;100524.59;4988008;28;20031;-68
2023/03/01 00:50:06;;;;;;;25.70;11.37;;;;;;;1.90;nan;100517.63;4977999;28;20210;-68
2023/03/01 00:52:31;;;;;;;24.75;11.82;;;;;;;1.87;nan;100520.13;4976698;28;20018;-68
2023/03/01 00:54:57;;;;;;;29.60;11.73;;;;;;;1.80;nan;100515.50;4981726;28;20093;-69
2023/03/01 00:57:23;;;;;;;27.65;12.77;;;;;;;1.74;nan;100520.50;4977723;28;20026;-69
2023/03/01 00:59:48;;;;;;;30.13;14.57;;;;;;;1.69;nan;100508.25;4991408;28;20050;-69
2023/03/01 01:02:14;;;;;;;28.33;13.20;;;;;;;1.66;nan;100510.72;4995956;28;20065;-68
2023/03/01 01:04:39;;;;;;;30.40;12.57;;;;;;;1.61;nan;100496.72;5001343;28;20272;-68
2023/03/01 01:07:05;;;;;;;33.37;13.23;;;;;;;1.53;nan;100505.91;5010551;28;20096;-68
2023/03/01 01:09:31;;;;;;;41.88;16.00;;;;;;;1.43;nan;100505.59;4997243;28;20026;-68
2023/03/01 01:11:56;;;;;;;30.00;12.20;;;;;;;1.33;nan;100508.69;4996725;28;20478;-69
2023/03/01 01:14:22;;;;;;;27.85;12.35;;;;;;;1.26;nan;100501.47;4996649;28;20027;-68
2023/03/01 01:16:47;;;;;;;24.10;10.30;;;;;;;1.20;nan;100507.28;4997121;28;20061;-69
2023/03/01 01:19:13;;;;;;;26.10;10.37;;;;;;;1.16;nan;100510.59;4997314;28;20069;-68
2023/03/01 01:21:39;;;;;;;24.13;10.85;;;;;;;1.11;nan;100502.66;4996943;28;20498;-69
2023/03/01 01:24:05;;;;;;;26.60;11.32;;;;;;;1.08;nan;100502.53;4995808;28;20524;-68
2023/03/01 01:26:32;;;;;;;20.10;9.37;;;;;;;1.05;nan;100502.41;4999400;28;20101;-68
2023/03/01 01:28:59;;;;;;;20.13;9.52;;;;;;;1.01;nan;100503.13;4994893;28;20106;-68
2023/03/01 01:31:25;;;;;;;19.50;9.05;;;;;;;0.97;nan;100498.66;4988544;28;20039;-68
2023/03/01 01:33:52;;;;;;;21.02;9.35;;;;;;;0.94;nan;100499.41;4976227;28;20023;-68
2023/03/01 01:36:18;;;;;;;19.70;9.57;;;;;;;0.90;nan;100491.47;4977506;28;20031;-68
2023/03/01 01:38:44;;;;;;;25.02;10.38;;;;;;;0.85;nan;100494.78;4977512;28;20081;-68
2023/03/01 01:41:11;;;;;;;19.73;9.30;;;;;;;0.81;nan;100498.03;4982637;28;20131;-68
2023/03/01 01:43:42;;;;;;;21.55;9.70;;;;;;;0.74;nan;100496.03;4988379;28;20022;-68
2023/03/01 01:46:12;;;;;;;16.10;8.43;;;;;;;0.69;nan;100492.38;4979139;28;20041;-69
2023/03/01 01:48:49;;;;;;;20.35;8.65;;;;;;;0.62;nan;100495.56;4977536;28;20487;-68
2023/03/01 01:51:21;;;;;;;19.15;8.65;;;;;;;0.56;nan;100491.00;4985930;28;20042;-68
2023/03/01 01:53:53;;;;;;;19.23;8.93;;;;;;;0.48;nan;100488.09;4977349;28;20034;-68
2023/03/01 01:56:19;;;;;;;20.10;9.43;;;;;;;0.44;nan;100488.81;4977246;28;20081;-68
2023/03/01 01:58:47;;;;;;;23.80;10.23;;;;;;;0.40;nan;100486.94;4982495;28;20514;-68
2023/03/01 02:01:13;;;;;;;24.00;9.88;;;;;;;0.36;nan;100479.81;4996601;28;20189;-68
2023/03/01 02:03:41;;;;;;;22.87;9.43;;;;;;;0.33;nan;100482.28;4997685;28;20108;-68
2023/03/01 02:06:36;;;;;;;22.85;9.35;;;;;;;0.27;nan;100478.63;5011325;28;20025;-68
2023/03/01 02:09:08;;;;;;;23.15;10.18;;;;;;;0.27;nan;100483.81;4994841;28;20034;-68
2023/03/01 02:11:34;;;;;;;19.35;9.82;;;;;;;0.23;nan;100470.66;4996691;28;20022;-68
2023/03/01 02:14:00;;;;;;;24.23;9.50;;;;;;;0.18;nan;100472.19;4996651;28;20033;-68
2023/03/01 02:16:26;;;;;;;23.00;10.40;;;;;;;0.13;nan;100474.59;4996615;28;20026;-68
2023/03/01 02:18:53;;;;;;;24.15;11.07;;;;;;;0.09;nan;100473.59;4996753;28;20027;-68
2023/03/01 02:21:33;;;;;;;25.73;10.43;;;;;;;0.02;nan;100471.56;4996666;28;20022;-68
2023/03/01 02:24:19;;;;;;;21.80;10.40;;;;;;;-0.06;nan;100462.56;4997176;28;20030;-68
2023/03/01 02:26:50;;;;;;;23.17;10.00;;;;;;;-0.13;nan;100461.41;5004534;28;20509;-68
2023/03/01 02:29:15;;;;;;;21.88;9.80;;;;;;;-0.16;nan;100466.47;4994723;28;20580;-68
2023/03/01 02:31:43;;;;;;;21.40;9.93;;;;;;;-0.20;nan;100462.88;4992460;28;20023;-68
2023/03/01 02:34:30;;;;;;;23.37;9.63;;;;;;;-0.25;nan;100459.19;4980580;28;20276;-68
2023/03/01 02:37:04;;;;;;;21.95;9.90;;;;;;;-0.28;nan;100450.44;4979449;28;20027;-69
2023/03/01 02:39:50;;;;;;;25.08;10.45;;;;;;;-0.36;nan;100455.28;4985639;28;20547;-68
2023/03/01 02:42:22;;;;;;;29.55;11.02;;;;;;;-0.43;nan;100443.78;4987105;28;20142;-68
2023/03/01 02:44:49;;;;;;;30.73;11.55;;;;;;;-0.47;nan;100447.94;4980487;28;20038;-68
2023/03/01 02:47:15;;;;;;;26.20;11.50;;;;;;;-0.51;nan;100445.16;4993205;28;20030;-68
2023/03/01 02:49:40;;;;;;;26.05;10.93;;;;;;;-0.54;nan;100448.47;4980556;28;20492;-68
2023/03/01 02:52:44;;;;;;;25.00;11.20;;;;;;;-0.57;nan;100450.06;4980176;28;20022;-68
2023/03/01 02:55:15;;;;;;;27.88;11.60;;;;;;;-0.61;nan;100446.44;4968524;28;20056;-68
2023/03/01 02:57:44;;;;;;;26.73;11.60;;;;;;;-0.64;nan;100442.00;4979975;28;20031;-68
2023/03/01 03:00:18;;;;;;;27.05;11.65;;;;;;;-0.68;nan;100445.28;4996472;28;20054;-68
2023/03/01 03:02:45;;;;;;;27.40;11.90;;;;;;;-0.71;nan;100444.28;4980195;28;20038;-68
2023/03/01 03:05:17;;;;;;;25.13;10.68;;;;;;;-0.75;nan;100443.25;5004044;28;20493;-68
2023/03/01 03:07:44;;;;;;;28.00;11.82;;;;;;;-0.79;nan;100436.16;5006869;28;20072;-68
2023/03/01 03:10:19;;;;;;;23.13;10.80;;;;;;;-0.82;nan;100436.03;4982443;28;20029;-68
2023/03/01 03:12:49;;;;;;;26.20;11.48;;;;;;;-0.86;nan;100435.00;4979931;28;20029;-68
2023/03/01 03:15:14;;;;;;;29.38;11.50;;;;;;;-0.89;nan;100437.47;4979835;28;20030;-68
2023/03/01 03:17:41;;;;;;;31.60;11.93;;;;;;;-0.92;nan;100427.84;4979754;28;20027;-68
2023/03/01 03:20:11;;;;;;;25.13;10.60;;;;;;;-0.94;nan;100432.06;4978618;28;20117;-68
2023/03/01 03:22:41;;;;;;;27.45;12.05;;;;;;;-0.97;nan;100425.88;4979571;28;20410;-68
2023/03/01 03:25:10;;;;;;;26.38;10.57;;;;;;;-0.98;nan;100425.00;4979745;28;20022;-68
2023/03/01 03:27:40;;;;;;;25.90;11.03;;;;;;;-1.01;nan;100430.03;5002211;28;20030;-68
2023/03/01 03:30:12;;;;;;;24.85;10.75;;;;;;;-1.04;nan;100427.31;4983817;28;20022;-68
2023/03/01 03:32:38;;;;;;;25.85;10.18;;;;;;;-1.07;nan;100424.59;4985254;28;20030;-68
2023/03/01 03:35:09;;;;;;;22.45;10.63;;;;;;;-1.09;nan;100424.50;4981970;28;20034;-68
2023/03/01 03:40:22;;;;;;;23.93;9.77;;;;;;;-1.15;nan;100413.91;4983398;28;20037;-68
2023/03/01 03:42:48;;;;;;;26.95;10.55;;;;;;;-1.18;nan;100413.75;4987879;28;20030;-68
2023/03/01 03:45:14;;;;;;;24.00;10.00;;;;;;;-1.19;nan;100419.75;4988929;28;20031;-68
2023/03/01 03:47:39;;;;;;;26.25;10.55;;;;;;;-1.20;nan;100416.25;4978003;28;20034;-68
2023/03/01 03:50:05;;;;;;;22.90;10.27;;;;;;;-1.20;nan;100411.09;4979224;28;20034;-68
2023/03/01 03:52:30;;;;;;;27.95;10.30;;;;;;;-1.21;nan;100411.91;4979457;28;20105;-68
2023/03/01 03:54:55;;;;;;;26.90;11.27;;;;;;;-1.22;nan;100415.31;4979285;28;20042;-67
2023/03/01 03:57:21;;;;;;;25.83;10.40;;;;;;;-1.23;nan;100418.72;4978826;28;20030;-68
2023/03/01 03:59:46;;;;;;;22.57;9.23;;;;;;;-1.24;nan;100416.94;4992304;28;20066;-68
2023/03/01 04:02:12;;;;;;;23.47;9.50;;;;;;;-1.25;nan;100414.28;4998370;28;20057;-68
2023/03/01 04:04:37;;;;;;;23.05;9.82;;;;;;;-1.27;nan;100416.81;5002155;28;20033;-68
2023/03/01 04:07:02;;;;;;;23.37;9.47;;;;;;;-1.28;nan;100408.97;5012116;28;20042;-68
2023/03/01 04:09:30;;;;;;;22.90;9.60;;;;;;;-1.31;nan;100414.91;4998344;28;20065;-68
2023/03/01 04:11:55;;;;;;;25.27;9.95;;;;;;;-1.33;nan;100416.50;4998197;28;20097;-68
2023/03/01 04:14:21;;;;;;;22.80;9.97;;;;;;;-1.34;nan;100414.72;4998317;28;20053;-68
2023/03/01 04:16:46;;;;;;;23.83;10.17;;;;;;;-1.36;nan;100411.19;4998133;28;20026;-68
2023/03/01 04:19:11;;;;;;;25.80;10.40;;;;;;;-1.39;nan;100409.38;4996933;28;20116;-68
2023/03/01 04:21:37;;;;;;;24.87;10.23;;;;;;;-1.42;nan;100418.66;4997844;28;20076;-68
2023/03/01 04:24:03;;;;;;;25.37;10.57;;;;;;;-1.45;nan;100420.28;4997952;28;20082;-68
2023/03/01 04:26:29;;;;;;;26.23;10.50;;;;;;;-1.47;nan;100419.34;5000222;28;20025;-68
2023/03/01 04:28:54;;;;;;;24.47;9.93;;;;;;;-1.51;nan;100412.25;4998587;28;20034;-68
2023/03/01 04:31:21;;;;;;;24.95;10.77;;;;;;;-1.54;nan;100412.13;4992597;28;20014;-68
2023/03/01 04:33:52;;;;;;;24.38;10.00;;;;;;;-1.60;nan;100407.53;4988765;28;20081;-68
2023/03/01 04:36:19;;;;;;;23.27;9.93;;;;;;;-1.63;nan;100401.34;4978452;28;20026;-68
2023/03/01 04:38:48;;;;;;;29.13;11.40;;;;;;;-1.66;nan;100393.44;4983345;28;20026;-68
2023/03/01 04:41:16;;;;;;;23.60;10.27;;;;;;;-1.69;nan;100390.72;4987053;28;20030;-68
2023/03/01 04:43:41;;;;;;;29.70;11.40;;;;;;;-1.70;nan;100388.94;4989190;28;20033;-68
2023/03/01 04:46:11;;;;;;;28.17;12.10;;;;;;;-1.74;nan;100386.22;4980299;28;20030;-68
2023/03/01 04:48:37;;;;;;;28.35;11.75;;;;;;;-1.76;nan;100382.69;4978279;28;20164;-68
2023/03/01 04:51:04;;;;;;;28.33;12.25;;;;;;;-1.79;nan;100382.56;4978105;28;20037;-67
2023/03/01 04:53:30;;;;;;;30.60;12.07;;;;;;;-1.82;nan;100384.97;4978197;28;20041;-68
2023/03/01 04:55:56;;;;;;;36.77;13.10;;;;;;;-1.85;nan;100382.22;4977901;28;20038;-68
2023/03/01 04:58:26;;;;;;;28.50;11.88;;;;;;;-1.88;nan;100389.84;4979942;28;20460;-68
2023/03/01 05:00:52;;;;;;;28.02;11.18;;;;;;;-1.91;nan;100392.28;4997456;28;20121;-68
2023/03/01 05:03:18;;;;;;;27.90;11.73;;;;;;;-1.95;nan;100398.09;4999655;28;20046;-68
2023/03/01 05:05:46;;;;;;;33.30;12.53;;;;;;;-1.99;nan;100402.22;5006055;28;20073;-68
2023/03/01 05:08:18;;;;;;;28.17;12.65;;;;;;;-1.98;nan;100403.13;5000920;28;20030;-68
2023/03/01 05:10:50;;;;;;;32.15;12.18;;;;;;;-2.00;nan;100404.75;4996031;28;20130;-68
2023/03/01 05:13:20;;;;;;;31.35;11.85;;;;;;;-2.02;nan;100410.72;4997304;28;20085;-68
2023/03/01 05:15:54;;;;;;;33.72;12.32;;;;;;;-2.05;nan;100402.81;4997544;28;20038;-68
2023/03/01 05:18:20;;;;;;;33.83;12.00;;;;;;;-2.07;nan;100399.25;4997192;28;20053;-68
2023/03/01 05:20:46;;;;;;;29.55;12.00;;;;;;;-2.10;nan;100398.25;4997482;28;20022;-68
2023/03/01 05:23:11;;;;;;;32.77;11.50;;;;;;;-2.12;nan;100399.84;4995823;28;20169;-68
2023/03/01 05:25:39;;;;;;;30.33;11.82;;;;;;;-2.17;nan;100397.03;4997284;28;20376;-68
2023/03/01 05:28:07;;;;;;;26.30;11.40;;;;;;;-2.21;nan;100393.41;5001968;28;20038;-68
2023/03/01 05:30:33;;;;;;;31.73;11.77;;;;;;;-2.24;nan;100385.53;4985870;28;20019;-68
2023/03/01 05:33:00;;;;;;;29.00;12.77;;;;;;;-2.25;nan;100388.06;4980390;28;20019;-68
2023/03/01 05:35:26;;;;;;;37.53;13.82;;;;;;;-2.27;nan;100387.97;4986302;28;20038;-68
2023/03/01 05:37:51;;;;;;;32.72;12.38;;;;;;;-2.29;nan;100391.25;4979998;28;20026;-68
2023/03/01 05:40:22;;;;;;;34.30;13.50;;;;;;;-2.31;nan;100386.03;4981072;28;20038;-68
2023/03/01 05:42:49;;;;;;;32.03;13.30;;;;;;;-2.33;nan;100382.50;4984731;28;20029;-67
2023/03/01 05:45:16;;;;;;;31.38;12.98;;;;;;;-2.36;nan;100379.78;4986803;28;20042;-68
2023/03/01 05:47:44;;;;;;;37.47;13.83;;;;;;;-2.40;nan;100381.31;4977745;28;20023;-68
2023/03/01 05:50:32;;;;;;;34.65;14.02;;;;;;;-2.43;nan;100388.00;4976532;28;20038;-68
2023/03/01 05:53:05;;;;;;;33.60;13.32;;;;;;;-2.46;nan;100394.75;4977575;28;20102;-68
2023/03/01 05:55:31;;;;;;;30.45;11.55;;;;;;;-2.48;nan;100400.66;4977843;28;20027;-68
2023/03/01 05:58:02;;;;;;;32.60;13.27;;;;;;;-2.51;nan;100396.22;4977439;28;20035;-68
2023/03/01 06:00:29;;;;;;;29.37;12.67;;;;;;;-2.51;nan;100400.53;4997905;28;20070;-68
2023/03/01 06:02:56;;;;;;;30.80;12.82;;;;;;;-2.53;nan;100396.94;5001054;28;20034;-68
2023/03/01 06:05:22;;;;;;;34.08;14.02;;;;;;;-2.55;nan;100399.47;5009878;28;20025;-68
2023/03/01 06:07:48;;;;;;;33.08;13.15;;;;;;;-2.56;nan;100401.94;5008781;28;20418;-69
2023/03/01 06:10:14;;;;;;;33.77;14.53;;;;;;;-2.57;nan;100395.03;5000804;28;20038;-67
2023/03/01 06:12:41;;;;;;;33.30;14.23;;;;;;;-2.57;nan;100401.09;5000589;28;20475;-68
2023/03/01 06:15:09;;;;;;;36.95;14.70;;;;;;;-2.60;nan;100391.50;4999348;28;20376;-68
2023/03/01 06:17:37;;;;;;;36.92;14.25;;;;;;;-2.62;nan;100387.94;5000532;28;20026;-68
2023/03/01 06:20:08;;;;;;;35.47;13.43;;;;;;;-2.64;nan;100393.84;5000631;28;20042;-68
2023/03/01 06:22:33;;;;;;;36.58;15.23;;;;;;;-2.64;nan;100387.00;5000379;28;20026;-68
2023/03/01 06:24:58;;;;;;;51.57;17.93;;;;;;;-2.64;nan;100393.84;4996964;28;20501;-68
2023/03/01 06:27:24;;;;;;;52.42;20.25;;;;;;;-2.63;nan;100396.50;5000465;28;20497;-68
2023/03/01 06:29:50;;;;;;;45.37;18.03;;;;;;;-2.62;nan;100393.09;4989144;28;20113;-68
2023/03/01 06:32:15;;;;;;;41.23;17.07;;;;;;;-2.59;nan;100389.81;4990404;28;20106;-68
2023/03/01 06:34:41;;;;;;;38.17;15.50;;;;;;;-2.57;nan;100389.88;4980881;28;20030;-68
2023/03/01 06:37:07;;;;;;;35.40;15.33;;;;;;;-2.54;nan;100384.88;4980899;28;20038;-68
2023/03/01 06:39:33;;;;;;;38.38;15.63;;;;;;;-2.50;nan;100379.09;4980647;28;20031;-68
2023/03/01 06:41:59;;;;;;;38.03;16.08;;;;;;;-2.46;nan;100375.84;4987042;28;20038;-68
2023/03/01 06:44:24;;;;;;;31.63;14.93;;;;;;;-2.40;nan;100377.84;4993721;28;20030;-68
2023/03/01 06:46:50;;;;;;;37.85;15.70;;;;;;;-2.36;nan;100380.63;4980607;28;20094;-68
2023/03/01 06:49:17;;;;;;;34.87;15.20;;;;;;;-2.32;nan;100381.69;4980640;28;20090;-68
2023/03/01 06:51:43;;;;;;;35.22;14.57;;;;;;;-2.29;nan;100375.78;4979270;28;20114;-68
2023/03/01 06:54:08;;;;;;;30.50;13.67;;;;;;;-2.24;nan;100382.09;4980386;28;20073;-67
2023/03/01 06:56:33;;;;;;;32.63;13.10;;;;;;;-2.22;nan;100377.88;4979312;28;20501;-68
2023/03/01 06:58:59;;;;;;;31.43;13.47;;;;;;;-2.18;nan;100384.97;4986014;28;20069;-68
2023/03/01 07:01:24;;;;;;;31.55;13.00;;;;;;;-2.17;nan;100379.88;4999663;28;20054;-68
2023/03/01 07:03:50;;;;;;;32.37;13.00;;;;;;;-2.10;nan;100386.22;4997678;28;20027;-68
2023/03/01 07:06:15;;;;;;;30.40;13.50;;;;;;;-2.05;nan;100387.34;5015928;28;20045;-67
2023/03/01 07:08:40;;;;;;;34.60;13.23;;;;;;;-2.02;nan;100392.66;5000453;28;20036;-68
2023/03/01 07:11:06;;;;;;;30.55;13.20;;;;;;;-1.96;nan;100391.16;4998338;28;20041;-68
2023/03/01 07:13:32;;;;;;;32.47;14.60;;;;;;;-1.90;nan;100391.47;4999624;28;20026;-68
2023/03/01 07:15:57;;;;;;;32.08;14.32;;;;;;;-1.86;nan;100383.03;4999608;28;20030;-68
2023/03/01 07:18:23;;;;;;;33.23;14.17;;;;;;;-1.81;nan;100386.75;4999352;28;20041;-68
2023/03/01 07:20:49;;;;;;;34.27;13.80;;;;;;;-1.74;nan;100388.81;4999715;28;20022;-69
2023/03/01 07:23:15;;;;;;;32.30;12.73;;;;;;;-1.66;nan;100390.88;4982980;28;20361;-69
2023/03/01 07:25:40;;;;;;;30.65;12.45;;;;;;;-1.58;nan;100405.00;4979745;28;20030;-69
2023/03/01 07:28:05;;;;;;;29.33;12.87;;;;;;;-1.50;nan;100395.94;4995733;28;20045;-69
2023/03/01 07:30:31;;;;;;;32.00;13.13;;;;;;;-1.38;nan;100394.72;4987715;28;20475;-69
2023/03/01 07:32:57;;;;;;;31.85;13.27;;;;;;;-1.26;nan;100395.31;4982836;28;20019;-69
2023/03/01 07:35:25;;;;;;;44.17;17.65;;;;;;;-1.10;nan;100393.41;4979852;28;20627;-69
2023/03/01 07:37:50;;;;;;;43.10;18.00;;;;;;;-0.90;nan;100397.78;4979614;28;20483;-70
2023/03/01 07:40:16;;;;;;;45.03;17.65;;;;;;;-0.56;nan;100389.75;4982631;28;20035;-68
2023/03/01 07:42:41;;;;;;;42.60;17.63;;;;;;;0.12;nan;100396.03;4985373;28;20026;-69
2023/03/01 07:45:07;;;;;;;36.40;15.77;;;;;;;1.21;nan;100394.97;4989897;28;20049;-68
2023/03/01 07:47:33;;;;;;;31.33;13.93;;;;;;;2.60;nan;100391.69;4979692;28;20098;-68
2023/03/01 07:49:58;;;;;;;30.27;13.40;;;;;;;4.23;nan;100389.13;4979530;28;20054;-69
2023/03/01 07:52:24;;;;;;;30.53;12.27;;;;;;;5.88;nan;100385.50;4979489;28;20062;-70
2023/03/01 07:54:49;;;;;;;27.17;12.77;;;;;;;7.44;nan;100385.91;4979426;28;20114;-67
2023/03/01 07:57:15;;;;;;;21.73;11.70;;;;;;;8.85;nan;100388.81;4979119;28;20113;-67
2023/03/01 07:59:40;;;;;;;21.83;11.53;;;;;;;10.05;nan;100386.47;4991817;28;20057;-67
2023/03/01 08:02:05;;;;;;;22.23;11.63;;;;;;;11.12;nan;100377.50;4998616;28;21389;-67
2023/03/01 08:04:32;;;;;;;24.97;13.00;;;;;;;12.28;nan;100374.09;5006201;28;20026;-68
2023/03/01 08:06:58;;;;;;;32.88;14.35;;;;;;;13.36;nan;100379.00;5008182;28;20030;-68
2023/03/01 08:09:24;;;;;;;35.80;15.02;;;;;;;14.39;nan;100372.16;4997212;28;20034;-67
2023/03/01 08:11:50;;;;;;;24.10;12.80;;;;;;;15.24;nan;100373.16;4998290;28;20033;-68
2023/03/01 08:14:15;;;;;;;23.08;12.00;;;;;;;16.00;nan;100374.06;4998638;28;20030;-68
2023/03/01 08:16:41;;;;;;;23.60;11.80;;;;;;;16.74;nan;100368.59;4995681;28;20039;-68
2023/03/01 08:19:08;;;;;;;19.37;11.33;;;;;;;17.54;nan;100374.28;4979002;28;20085;-68
2023/03/01 08:21:37;;;;;;;20.27;11.18;;;;;;;18.22;nan;100364.13;4978431;28;20054;-68
2023/03/01 08:24:05;;;;;;;20.48;12.02;;;;;;;18.87;nan;100368.94;4984990;28;20137;-68
2023/03/01 08:26:31;;;;;;;21.70;12.20;;;;;;;19.45;nan;100359.66;4986521;28;20113;-68
2023/03/01 08:28:57;;;;;;;20.27;13.32;;;;;;;19.97;nan;100361.16;4997344;28;20399;-68
2023/03/01 08:31:29;;;;;;;25.58;13.88;;;;;;;20.41;nan;100357.53;4988527;28;20026;-68
2023/03/01 08:33:57;;;;;;;24.93;13.67;;;;;;;20.86;nan;100361.81;4978728;28;20031;-68
2023/03/01 08:36:24;;;;;;;23.55;13.07;;;;;;;20.91;nan;100358.91;4978868;28;20034;-68
2023/03/01 08:38:51;;;;;;;25.65;13.07;;;;;;;21.27;nan;100354.59;4978698;28;20395;-68
2023/03/01 08:41:16;;;;;;;20.77;12.82;;;;;;;21.50;nan;100351.66;4984367;28;20030;-68
2023/03/01 08:43:42;;;;;;;20.97;13.47;;;;;;;21.77;nan;100350.44;4989462;28;20441;-68
2023/03/01 08:46:07;;;;;;;22.23;12.17;;;;;;;22.05;nan;100351.72;4980512;28;20026;-68
2023/03/01 08:48:32;;;;;;;16.13;10.87;;;;;;;22.34;nan;100354.72;4977303;28;20031;-68
2023/03/01 08:51:08;;;;;;;13.43;10.13;;;;;;;22.59;nan;100345.41;4978372;28;20353;-68
2023/03/01 08:53:33;;;;;;;15.20;10.55;;;;;;;22.79;nan;100347.03;4978428;28;20026;-68
2023/03/01 08:56:03;;;;;;;17.87;11.03;;;;;;;22.76;nan;100342.69;4978298;28;20035;-68
2023/03/01 08:58:29;;;;;;;16.05;10.30;;;;;;;23.01;nan;100337.78;4981106;28;20050;-68
2023/03/01 09:00:56;;;;;;;14.33;10.03;;;;;;;23.31;nan;100331.72;4997588;28;20054;-68
2023/03/01 09:03:22;;;;;;;15.75;10.25;;;;;;;23.67;nan;100325.16;4998980;28;20034;-68
2023/03/01 09:05:50;;;;;;;14.73;10.43;;;;;;;24.17;nan;100324.97;5006497;28;20096;-68
2023/03/01 09:08:19;;;;;;;13.48;9.95;;;;;;;24.44;nan;100327.81;5002094;28;20081;-68
2023/03/01 09:10:45;;;;;;;14.85;10.07;;;;;;;24.72;nan;100323.41;4997665;28;20541;-68
2023/03/01 09:13:10;;;;;;;14.30;10.30;;;;;;;25.18;nan;100327.72;4997281;28;20101;-68
2023/03/01 09:15:37;;;;;;;15.73;10.30;;;;;;;25.29;nan;100324.31;4978195;28;20030;-68
2023/03/01 09:18:03;;;;;;;14.95;10.20;;;;;;;25.59;nan;100330.53;4976678;28;20062;-68
2023/03/01 09:20:30;;;;;;;14.45;10.35;;;;;;;25.60;nan;100329.56;4980360;28;20039;-68
2023/03/01 09:22:56;;;;;;;15.90;10.90;;;;;;;25.62;nan;100323.13;4976616;28;20034;-68
2023/03/01 09:25:21;;;;;;;19.08;11.07;;;;;;;26.12;nan;100317.09;4978173;28;20031;-68
2023/03/01 09:27:46;;;;;;;13.83;10.17;;;;;;;26.53;nan;100315.19;5002591;28;20090;-69
2023/03/01 09:30:12;;;;;;;14.77;9.00;;;;;;;27.02;nan;100310.84;4983315;28;20026;-68
2023/03/01 09:32:42;;;;;;;12.93;9.43;;;;;;;27.45;nan;100297.81;4982804;28;20027;-69
2023/03/01 09:35:08;;;;;;;12.93;8.37;;;;;;;27.85;nan;100302.06;4979344;28;20030;-68
2023/03/01 09:37:35;;;;;;;10.55;8.38;;;;;;;28.24;nan;100291.88;4981978;28;20034;-69
2023/03/01 09:40:03;;;;;;;14.15;9.18;;;;;;;28.04;nan;100286.16;4982706;28;20026;-69
2023/03/01 09:42:31;;;;;;;11.63;8.63;;;;;;;28.27;nan;100278.09;4987808;28;20082;-69
2023/03/01 09:45:14;;;;;;;13.25;9.73;;;;;;;28.65;nan;100268.78;4993374;28;20037;-68
2023/03/01 09:47:41;;;;;;;9.97;7.87;;;;;;;28.70;nan;100263.00;4981632;28;20081;-68
2023/03/01 09:50:14;;;;;;;10.27;8.15;;;;;;;28.83;nan;100262.91;4982002;28;20031;-68
2023/03/01 09:52:42;;;;;;;12.30;8.57;;;;;;;29.50;nan;100252.03;4981598;28;20035;-68
2023/03/01 09:55:12;;;;;;;10.07;7.43;;;;;;;29.67;nan;100250.59;4981681;28;20090;-68
2023/03/01 09:57:59;;;;;;;10.30;7.75;;;;;;;29.44;nan;100245.25;4981339;28;20045;-68
2023/03/01 10:00:44;;;;;;;12.10;7.93;;;;;;;29.30;nan;100240.09;4999824;28;20054;-69
2023/03/01 10:03:42;;;;;;;8.70;6.70;;;;;;;29.30;nan;100230.13;5000684;28;20482;-69
2023/03/01 10:06:15;;;;;;;9.15;7.50;;;;;;;29.47;nan;100230.56;5014776;28;20030;-68
2023/03/01 10:08:46;;;;;;;8.13;6.13;;;;;;;29.46;nan;100232.41;5000283;28;20034;-68
2023/03/01 10:11:32;;;;;;;8.50;6.32;;;;;;;29.20;nan;100232.72;4988628;28;20043;-68
2023/03/01 10:14:01;;;;;;;7.63;5.90;;;;;;;29.04;nan;100232.28;4980980;28;20035;-69
2023/03/01 10:16:32;;;;;;;8.68;5.38;;;;;;;28.78;nan;100227.13;4987138;28;20034;-69
2023/03/01 10:19:04;;;;;;;8.50;5.90;;;;;;;28.81;nan;100232.31;4981101;28;20058;-68
2023/03/01 10:21:31;;;;;;;8.90;5.60;;;;;;;28.86;nan;100227.41;4979690;28;20530;-69
2023/03/01 10:24:10;;;;;;;7.75;5.68;;;;;;;28.87;nan;100231.84;4980988;28;20030;-69
2023/03/01 10:26:47;;;;;;;7.57;6.00;;;;;;;29.05;nan;100236.72;4987420;28;20034;-69
2023/03/01 10:29:13;;;;;;;8.18;6.07;;;;;;;29.37;nan;100225.03;4995532;28;20479;-68
2023/03/01 10:31:52;;;;;;;8.27;5.85;;;;;;;29.22;nan;100228.03;4991714;28;20038;-69
2023/03/01 10:34:33;;;;;;;8.95;6.00;;;;;;;29.54;nan;100220.03;4979623;28;20030;-69
2023/03/01 10:37:09;;;;;;;7.30;5.75;;;;;;;28.72;nan;100208.66;4981017;28;20038;-69
2023/03/01 10:39:34;;;;;;;6.10;5.10;;;;;;;28.99;nan;100211.00;4980535;28;20027;-69
2023/03/01 10:42:03;;;;;;;7.35;5.88;;;;;;;28.82;nan;100212.41;4986335;28;20035;-68
2023/03/01 10:44:47;;;;;;;8.47;5.73;;;;;;;28.49;nan;100208.69;4993338;28;20041;-68
2023/03/01 10:47:25;;;;;;;9.13;6.05;;;;;;;28.73;nan;100208.56;4980872;28;20390;-68
2023/03/01 10:49:57;;;;;;;8.35;6.22;;;;;;;29.01;nan;100202.72;4980524;28;20046;-69
2023/03/01 10:52:27;;;;;;;8.05;6.45;;;;;;;29.04;nan;100208.75;4980599;28;20045;-69
2023/03/01 10:54:59;;;;;;;8.48;6.25;;;;;;;29.17;nan;100210.41;4980561;28;20039;-69
2023/03/01 10:57:30;;;;;;;8.00;6.13;;;;;;;29.23;nan;100199.94;4980303;28;20091;-69
2023/03/01 11:00:25;;;;;;;8.35;5.93;;;;;;;29.21;nan;100196.50;4995011;28;20058;-68
2023/03/01 11:03:02;;;;;;;7.50;5.72;;;;;;;29.42;nan;100184.84;4979324;28;20126;-68
2023/03/01 11:05:30;;;;;;;8.73;5.80;;;;;;;29.88;nan;100179.16;5004102;28;20032;-69
2023/03/01 11:08:00;;;;;;;8.93;5.82;;;;;;;30.27;nan;100187.53;5005587;28;20097;-69
2023/03/01 11:10:34;;;;;;;8.83;6.10;;;;;;;29.94;nan;100179.50;4982054;28;20045;-69
2023/03/01 11:13:15;;;;;;;8.32;6.03;;;;;;;29.60;nan;100178.84;4989424;28;20045;-69
2023/03/01 11:15:42;;;;;;;8.00;6.13;;;;;;;29.18;nan;100177.78;4992084;28;20039;-69
2023/03/01 11:18:22;;;;;;;7.82;5.80;;;;;;;29.23;nan;100167.38;4979900;28;20053;-68
2023/03/01 11:20:51;;;;;;;8.38;6.57;;;;;;;29.14;nan;100170.88;4980234;28;20038;-69
2023/03/01 11:23:18;;;;;;;9.60;6.50;;;;;;;29.32;nan;100173.03;4979913;28;20033;-69
2023/03/01 11:25:52;;;;;;;8.05;6.22;;;;;;;29.06;nan;100163.41;4980010;28;20034;-69
2023/03/01 11:28:20;;;;;;;8.20;6.38;;;;;;;29.06;nan;100155.25;5003874;28;20472;-69
2023/03/01 11:30:57;;;;;;;9.70;6.85;;;;;;;28.91;nan;100149.28;4985048;28;20027;-69
2023/03/01 11:33:44;;;;;;;9.02;7.00;;;;;;;28.89;nan;100144.97;4979934;28;20031;-69
2023/03/01 11:36:34;;;;;;;7.80;6.40;;;;;;;28.89;nan;100135.00;4979741;28;20031;-68
2023/03/01 11:39:15;;;;;;;8.63;6.43;;;;;;;28.77;nan;100127.84;4979842;28;20081;-69
2023/03/01 11:41:42;;;;;;;8.80;6.60;;;;;;;28.53;nan;100123.47;4988381;28;20117;-69